Time;durP1;ratioP1;P1;durP2;ratioP2;P2;SDS_P1;SDS_P2;PMS_P1;PMS_P2;Temp;Humidity;BMP_temperature;BMP_pressure;BME280_temperature;BME280_humidity;BME280_pressure;Samples;Min_cycle;Max_cycle;Signal;HPM_P1;HPM_P2
2020/12/11 00:02:23;;;;;;;31.97;17.90;;;;;;;-1.71;79.72;95644.45;1773373;79;21228;-83
2020/12/11 00:04:49;;;;;;;24.10;16.25;;;;;;;-1.74;79.83;95646.78;1779927;79;21105;-84
2020/12/11 00:07:15;;;;;;;25.43;16.00;;;;;;;-1.75;79.85;95647.71;1771299;79;21121;-83
2020/12/11 00:09:41;;;;;;;23.15;15.10;;;;;;;-1.76;80.01;95642.74;1776888;79;21127;-83
2020/12/11 00:12:07;;;;;;;17.35;12.20;;;;;;;-1.76;80.25;95642.28;1774902;79;21090;-83
2020/12/11 00:14:33;;;;;;;13.83;8.78;;;;;;;-1.74;80.63;95641.69;1772548;79;21395;-83
2020/12/11 00:16:59;;;;;;;11.40;7.67;;;;;;;-1.69;80.83;95644.66;1775684;79;21125;-83
2020/12/11 00:19:25;;;;;;;11.57;8.25;;;;;;;-1.60;81.32;95640.56;1769248;79;21121;-84
2020/12/11 00:21:52;;;;;;;12.68;8.98;;;;;;;-1.50;81.44;95638.86;1769696;79;21345;-83
2020/12/11 00:24:18;;;;;;;12.80;9.65;;;;;;;-1.53;81.31;95634.02;1728988;81;21131;-85
2020/12/11 00:26:45;;;;;;;11.03;7.10;;;;;;;-1.47;81.43;95646.25;1730204;81;21145;-84
2020/12/11 00:29:11;;;;;;;11.60;8.60;;;;;;;-1.43;81.56;95646.83;1725797;81;21133;-84
2020/12/11 00:31:38;;;;;;;11.90;8.80;;;;;;;-1.40;81.92;95641.47;1743338;81;21106;-83
2020/12/11 00:34:04;;;;;;;14.43;9.03;;;;;;;-1.34;81.94;95649.41;1736480;81;21133;-83
2020/12/11 00:36:30;;;;;;;10.88;8.83;;;;;;;-1.28;82.24;95655.30;1731279;81;21117;-83
2020/12/11 00:38:56;;;;;;;11.25;7.83;;;;;;;-1.22;82.10;95656.05;1721221;81;21443;-83
2020/12/11 00:41:23;;;;;;;13.55;8.60;;;;;;;-1.14;82.23;95659.25;1748218;80;21136;-84
2020/12/11 00:43:49;;;;;;;11.00;8.63;;;;;;;-1.11;82.42;95652.62;1755406;80;21205;-83
2020/12/11 00:46:18;;;;;;;11.65;8.85;;;;;;;-1.03;82.50;95654.52;1754062;80;21242;-84
2020/12/11 00:48:44;;;;;;;11.00;8.03;;;;;;;-0.94;82.46;95666.51;1743458;80;21089;-84
2020/12/11 00:51:10;;;;;;;17.57;11.75;;;;;;;-0.86;82.51;95657.73;1765626;80;21118;-83
2020/12/11 00:53:37;;;;;;;24.98;14.93;;;;;;;-0.80;82.31;95661.06;1752531;80;21247;-83
2020/12/11 00:56:03;;;;;;;25.68;17.48;;;;;;;-0.77;82.24;95663.34;1756150;80;21113;-83
2020/12/11 00:58:29;;;;;;;38.10;21.60;;;;;;;-0.76;82.35;95667.51;1757728;80;21134;-83
2020/12/11 01:00:55;;;;;;;72.78;41.77;;;;;;;-0.77;82.06;95672.27;1754356;80;21133;-84
2020/12/11 01:03:21;;;;;;;82.85;45.25;;;;;;;-0.76;81.95;95661.13;1756414;80;21127;-83
2020/12/11 01:05:47;;;;;;;91.72;50.88;;;;;;;-0.74;81.82;95664.83;1759456;80;21101;-84
2020/12/11 01:08:13;;;;;;;85.80;51.02;;;;;;;-0.72;81.80;95660.40;1765547;80;21341;-83
2020/12/11 01:10:39;;;;;;;95.75;55.25;;;;;;;-0.72;81.70;95663.75;1763140;80;21119;-83
2020/12/11 01:13:05;;;;;;;93.58;53.73;;;;;;;-0.72;81.69;95659.13;1761063;80;21116;-83
2020/12/11 01:15:32;;;;;;;104.75;58.30;;;;;;;-0.71;81.80;95661.54;1757690;80;21121;-83
2020/12/11 01:17:58;;;;;;;95.57;51.60;;;;;;;-0.68;81.80;95661.27;1756819;80;21113;-84
2020/12/11 01:20:24;;;;;;;95.67;51.65;;;;;;;-0.65;81.72;95656.41;1753588;80;21110;-83
2020/12/11 01:22:50;;;;;;;87.15;49.13;;;;;;;-0.65;81.73;95658.48;1758921;80;21378;-83
2020/12/11 01:25:18;;;;;;;81.17;47.10;;;;;;;-0.70;81.61;95655.50;1755962;80;21116;-83
2020/12/11 01:27:44;;;;;;;78.33;42.67;;;;;;;-0.66;81.81;95659.39;1757368;80;21137;-83
2020/12/11 01:30:10;;;;;;;67.32;38.85;;;;;;;-0.65;81.73;95658.48;1756767;80;21861;-83
2020/12/11 01:32:36;;;;;;;48.23;30.15;;;;;;;-0.64;81.69;95655.47;1754073;80;22092;-84
2020/12/11 01:35:02;;;;;;;43.52;26.42;;;;;;;-0.65;81.79;95655.13;1756715;80;21266;-83
2020/12/11 01:37:28;;;;;;;35.05;21.42;;;;;;;-0.68;81.71;95661.27;1758767;80;21145;-84
2020/12/11 01:39:55;;;;;;;30.30;19.55;;;;;;;-0.72;81.69;95655.30;1753990;80;21156;-83
2020/12/11 01:42:21;;;;;;;25.68;16.80;;;;;;;-0.71;81.75;95655.63;1758833;80;21508;-83
2020/12/11 01:44:50;;;;;;;20.02;12.95;;;;;;;-0.72;81.84;95655.30;1759243;80;21137;-83
2020/12/11 01:47:18;;;;;;;16.73;9.90;;;;;;;-0.70;82.01;95652.95;1765511;80;21460;-83
2020/12/11 01:49:45;;;;;;;13.40;8.93;;;;;;;-0.71;82.06;95650.06;1757794;80;21137;-83
2020/12/11 01:52:15;;;;;;;11.75;7.90;;;;;;;-0.67;82.18;95660.80;1750950;80;21310;-83
2020/12/11 01:54:42;;;;;;;9.70;7.12;;;;;;;-0.64;82.26;95666.95;1759596;80;21110;-83
2020/12/11 01:57:34;;;;;;;9.08;7.12;;;;;;;-0.59;82.33;95662.72;1755288;80;21129;-83
2020/12/11 02:00:13;;;;;;;10.68;7.03;;;;;;;-0.48;82.44;95660.07;1796077;78;22923;-82
2020/12/11 02:02:40;;;;;;;11.03;7.67;;;;;;;-0.48;82.20;95665.98;1766598;79;21081;-82
2020/12/11 02:05:08;;;;;;;11.22;8.45;;;;;;;-0.52;81.96;95667.16;1742788;79;21086;-82
2020/12/11 02:07:38;;;;;;;13.20;9.93;;;;;;;-0.49;82.16;95668.63;1773837;79;21130;-82
2020/12/11 02:10:05;;;;;;;11.35;7.47;;;;;;;-0.46;82.09;95667.13;1767889;79;21342;-82
2020/12/11 02:12:31;;;;;;;13.88;9.80;;;;;;;-0.46;82.04;95659.47;1776599;79;21102;-82
2020/12/11 02:14:58;;;;;;;12.33;8.10;;;;;;;-0.46;81.97;95662.83;1773662;79;21122;-82
2020/12/11 02:17:26;;;;;;;17.15;11.08;;;;;;;-0.45;82.04;95658.52;1771306;79;21110;-83
2020/12/11 02:19:56;;;;;;;18.60;11.20;;;;;;;-0.45;81.79;95646.57;1772606;79;21148;-82
2020/12/11 02:22:22;;;;;;;18.62;12.10;;;;;;;-0.52;81.81;95644.66;1775164;79;21105;-83
2020/12/11 02:24:50;;;;;;;18.55;13.10;;;;;;;-0.56;81.86;95650.50;1767870;79;21453;-83
2020/12/11 02:27:16;;;;;;;15.98;11.25;;;;;;;-0.69;81.87;95642.27;1727461;79;21153;-81
2020/12/11 02:29:42;;;;;;;10.13;6.92;;;;;;;-0.67;82.03;95645.50;1762391;79;21096;-83
2020/12/11 02:32:09;;;;;;;7.65;6.53;;;;;;;-0.68;82.08;95640.86;1773627;79;21106;-83
2020/12/11 02:34:35;;;;;;;6.15;5.03;;;;;;;-0.65;82.27;95643.18;1763577;79;21126;-82
2020/12/11 02:37:04;;;;;;;5.22;4.65;;;;;;;-0.63;82.45;95637.47;1768479;79;21108;-82
2020/12/11 02:39:30;;;;;;;8.25;5.05;;;;;;;-0.63;82.55;95641.77;1767581;79;21125;-82
2020/12/11 02:41:56;;;;;;;7.17;5.22;;;;;;;-0.64;82.63;95631.23;1769917;79;21102;-82
2020/12/11 02:44:23;;;;;;;7.05;5.65;;;;;;;-0.63;82.61;95632.84;1774258;79;21113;-82
2020/12/11 02:46:49;;;;;;;6.12;5.10;;;;;;;-0.66;82.69;95626.23;1766180;79;22274;-82
2020/12/11 02:49:15;;;;;;;6.67;5.45;;;;;;;-0.66;82.94;95627.97;1776220;79;21423;-83
2020/12/11 02:51:41;;;;;;;7.00;4.97;;;;;;;-0.64;83.09;95626.13;1771685;79;21423;-82
2020/12/11 02:54:07;;;;;;;8.00;5.47;;;;;;;-0.63;83.07;95616.25;1768699;79;22019;-81
2020/12/11 02:56:33;;;;;;;8.70;6.20;;;;;;;-0.63;83.01;95620.08;1757300;79;21709;-82
2020/12/11 02:59:00;;;;;;;8.53;5.92;;;;;;;-0.64;83.13;95634.59;1750475;79;21343;-82
2020/12/11 03:01:27;;;;;;;8.20;5.85;;;;;;;-0.63;83.11;95633.64;1768851;79;21114;-82
2020/12/11 03:03:56;;;;;;;6.72;6.05;;;;;;;-0.63;83.17;95627.27;1763727;79;22169;-82
2020/12/11 03:06:27;;;;;;;10.63;6.70;;;;;;;-0.57;83.21;95624.65;1764134;79;21320;-82
2020/12/11 03:08:50;;;;;;;10.55;6.92;;;;;;;-0.55;83.31;95629.15;1764996;79;21255;-82
2020/12/11 03:11:17;;;;;;;7.85;5.85;;;;;;;-0.50;83.48;95631.30;1766030;79;21141;-83
2020/12/11 03:13:45;;;;;;;9.23;6.62;;;;;;;-0.48;83.30;95632.00;1770876;79;21246;-82
2020/12/11 03:16:12;;;;;;;8.30;5.80;;;;;;;-0.44;83.26;95637.17;1763230;79;22226;-82
2020/12/11 03:18:38;;;;;;;6.53;5.72;;;;;;;-0.44;83.26;95632.87;1771712;79;21404;-84
2020/12/11 03:21:04;;;;;;;7.62;5.58;;;;;;;-0.44;83.34;95641.80;1773066;79;21100;-82
2020/12/11 03:23:30;;;;;;;6.25;4.25;;;;;;;-0.42;83.37;95637.84;1763519;79;21240;-82
2020/12/11 03:25:57;;;;;;;6.33;4.75;;;;;;;-0.43;83.33;95635.75;1760351;79;21168;-82
2020/12/11 03:28:22;;;;;;;5.17;4.17;;;;;;;-0.39;83.35;95636.30;1769183;79;21531;-82
2020/12/11 03:30:49;;;;;;;4.92;4.03;;;;;;;-0.38;83.57;95631.52;1772575;79;21089;-82
2020/12/11 03:33:15;;;;;;;6.22;4.60;;;;;;;-0.39;83.63;95633.27;1761994;79;21255;-82
2020/12/11 03:35:41;;;;;;;5.05;3.77;;;;;;;-0.37;83.68;95641.59;1770170;79;21118;-82
2020/12/11 03:38:07;;;;;;;4.92;4.08;;;;;;;-0.30;83.79;95647.00;1762047;79;21132;-83
2020/12/11 03:40:33;;;;;;;7.25;6.55;;;;;;;-0.24;83.87;95654.58;1772323;79;21113;-83
2020/12/11 03:42:59;;;;;;;7.20;6.33;;;;;;;-0.19;84.09;95659.61;1761646;79;21120;-82
2020/12/11 03:45:27;;;;;;;5.78;5.17;;;;;;;-0.12;84.19;95658.16;1769156;79;21241;-82
2020/12/11 03:47:53;;;;;;;5.42;4.10;;;;;;;-0.04;83.94;95657.01;1763489;79;21116;-83
2020/12/11 03:50:19;;;;;;;5.78;4.95;;;;;;;0.01;83.85;95656.63;1775800;79;21081;-83
2020/12/11 03:52:45;;;;;;;5.25;4.60;;;;;;;0.02;83.86;95648.49;1762278;79;21085;-83
2020/12/11 03:55:11;;;;;;;4.65;4.17;;;;;;;0.09;84.00;95650.83;1767688;79;21122;-83
2020/12/11 03:57:37;;;;;;;4.67;3.77;;;;;;;0.11;84.08;95652.30;1767297;79;21161;-83
2020/12/11 04:00:05;;;;;;;5.25;3.90;;;;;;;0.12;84.11;95648.80;1758804;79;21271;-82
2020/12/11 04:02:34;;;;;;;4.97;4.30;;;;;;;0.15;84.24;95647.72;1753607;80;21133;-82
2020/12/11 04:05:03;;;;;;;5.50;4.30;;;;;;;0.18;84.25;95650.84;1757217;80;21121;-84
2020/12/11 04:07:29;;;;;;;4.87;4.12;;;;;;;0.21;84.33;95655.67;1757962;80;21138;-83
2020/12/11 04:09:55;;;;;;;5.33;4.17;;;;;;;0.27;84.39;95653.03;1756959;80;21235;-82
2020/12/11 04:12:21;;;;;;;4.37;3.83;;;;;;;0.27;84.41;95645.37;1757928;80;21113;-82
2020/12/11 04:14:47;;;;;;;4.47;3.80;;;;;;;0.28;84.46;95654.64;1758479;80;21120;-81
2020/12/11 04:17:14;;;;;;;3.98;3.58;;;;;;;0.30;84.55;95644.62;1755181;80;21244;-81
2020/12/11 04:19:40;;;;;;;4.60;4.08;;;;;;;0.29;84.66;95638.37;1762777;80;21125;-82
2020/12/11 04:22:06;;;;;;;4.45;3.42;;;;;;;0.36;84.61;95647.12;1757194;80;21239;-81
2020/12/11 04:24:32;;;;;;;4.30;3.37;;;;;;;0.38;84.69;95643.14;1754641;80;21126;-82
2020/12/11 04:26:58;;;;;;;4.47;3.72;;;;;;;0.37;84.92;95644.09;1757388;80;21121;-82
2020/12/11 04:29:24;;;;;;;4.65;3.75;;;;;;;0.36;85.00;95633.53;1759849;80;21122;-83
2020/12/11 04:31:59;;;;;;;3.92;3.40;;;;;;;0.39;85.05;95639.17;1755846;80;21310;-81
2020/12/11 04:34:25;;;;;;;3.75;3.20;;;;;;;0.43;84.96;95645.61;1756179;80;21989;-82
2020/12/11 04:36:52;;;;;;;4.15;3.75;;;;;;;0.50;84.93;95644.14;1756511;80;21143;-82
2020/12/11 04:39:19;;;;;;;3.75;3.45;;;;;;;0.55;84.98;95641.97;1762096;80;21118;-82
2020/12/11 04:41:45;;;;;;;3.50;2.95;;;;;;;0.59;84.94;95639.94;1755694;80;22167;-82
2020/12/11 04:44:11;;;;;;;4.20;3.55;;;;;;;0.62;84.95;95643.95;1756183;80;21140;-82
2020/12/11 04:46:38;;;;;;;3.62;3.30;;;;;;;0.64;84.93;95644.62;1758973;80;21377;-83
2020/12/11 04:49:04;;;;;;;3.27;3.05;;;;;;;0.67;85.01;95656.68;1756637;80;21125;-82
2020/12/11 04:51:30;;;;;;;4.10;2.92;;;;;;;0.74;84.95;95656.45;1761716;80;21244;-81
2020/12/11 04:53:58;;;;;;;3.52;3.05;;;;;;;0.85;85.03;95656.29;1755079;80;21111;-82
2020/12/11 04:56:25;;;;;;;3.40;3.10;;;;;;;0.87;84.75;95653.59;1761727;80;21079;-82
2020/12/11 04:58:52;;;;;;;4.47;4.05;;;;;;;0.91;84.96;95653.64;1762515;80;21585;-82
2020/12/11 05:01:32;;;;;;;3.75;3.17;;;;;;;0.96;84.87;95654.02;1768214;80;21107;-82
2020/12/11 05:04:00;;;;;;;3.45;3.15;;;;;;;0.94;84.58;95653.82;1710310;82;21438;-82
2020/12/11 05:06:39;;;;;;;4.70;4.20;;;;;;;0.91;84.42;95649.80;1730191;82;21228;-83
2020/12/11 05:09:12;;;;;;;6.72;4.87;;;;;;;0.94;84.42;95649.98;1698385;83;21123;-82
2020/12/11 05:11:40;;;;;;;4.08;3.50;;;;;;;0.97;84.33;95659.45;1712000;82;21113;-83
2020/12/11 05:14:18;;;;;;;3.35;2.80;;;;;;;0.93;84.41;95655.58;1729679;82;21136;-82
2020/12/11 05:16:56;;;;;;;3.37;3.00;;;;;;;0.95;84.53;95662.63;1730358;82;21155;-82
2020/12/11 05:19:22;;;;;;;4.40;3.92;;;;;;;0.93;84.47;95659.41;1730395;82;21431;-82
2020/12/11 05:21:48;;;;;;;3.12;2.50;;;;;;;0.92;84.51;95662.11;1731000;82;21081;-83
2020/12/11 05:24:14;;;;;;;3.58;3.25;;;;;;;0.95;84.51;95657.98;1731308;82;21156;-83
2020/12/11 05:26:40;;;;;;;3.10;2.77;;;;;;;0.95;84.52;95667.75;1725777;82;21132;-83
2020/12/11 05:29:06;;;;;;;3.37;2.90;;;;;;;1.00;84.72;95657.92;1733722;82;21129;-83
2020/12/11 05:31:32;;;;;;;3.72;3.12;;;;;;;1.03;84.65;95661.47;1729642;82;21264;-82
2020/12/11 05:34:08;;;;;;;3.15;2.62;;;;;;;1.04;84.53;95664.84;1728015;82;21105;-82
2020/12/11 05:36:53;;;;;;;3.42;3.12;;;;;;;1.01;84.50;95668.96;1732837;82;21152;-83
2020/12/11 05:39:33;;;;;;;2.80;2.52;;;;;;;1.01;84.41;95661.29;1790765;79;23797;-83
2020/12/11 05:42:01;;;;;;;2.58;2.37;;;;;;;0.95;84.43;95662.63;1774646;80;21349;-82
2020/12/11 05:44:32;;;;;;;2.60;2.40;;;;;;;0.97;84.41;95659.94;1765408;80;21186;-82
2020/12/11 05:47:18;;;;;;;2.92;2.62;;;;;;;0.92;84.33;95660.36;1767790;80;21355;-82
2020/12/11 05:49:44;;;;;;;3.12;2.83;;;;;;;0.87;84.26;95658.23;1740177;80;21225;-82
2020/12/11 05:52:16;;;;;;;3.45;3.02;;;;;;;0.83;84.24;95662.49;1673298;84;21097;-83
2020/12/11 05:54:47;;;;;;;2.50;2.30;;;;;;;0.78;84.12;95662.89;1729329;82;21141;-82
2020/12/11 05:57:15;;;;;;;2.90;2.58;;;;;;;0.77;84.11;95669.42;1722442;82;21093;-82
2020/12/11 05:59:43;;;;;;;2.75;2.47;;;;;;;0.78;83.97;95665.45;1711403;82;21352;-82
2020/12/11 06:02:11;;;;;;;3.20;2.60;;;;;;;0.76;83.92;95665.25;1719194;82;21128;-82
2020/12/11 06:04:38;;;;;;;2.72;2.47;;;;;;;0.74;83.78;95664.59;1716189;82;21118;-82
2020/12/11 06:07:13;;;;;;;3.00;2.70;;;;;;;0.70;83.88;95660.23;1715830;82;21161;-82
2020/12/11 06:09:41;;;;;;;3.92;3.37;;;;;;;0.70;83.59;95663.27;1714931;82;21144;-82
2020/12/11 06:12:09;;;;;;;3.45;3.15;;;;;;;0.64;83.31;95667.16;1718653;82;21110;-82
2020/12/11 06:15:14;;;;;;;2.60;2.40;;;;;;;0.59;83.32;95662.47;1706977;84;21129;-83
2020/12/11 06:18:00;;;;;;;3.02;2.60;;;;;;;0.54;83.29;95664.64;1672231;84;21395;-82
2020/12/11 06:20:27;;;;;;;3.05;2.80;;;;;;;0.46;83.42;95660.67;1685305;84;21305;-82
2020/12/11 06:22:53;;;;;;;2.40;2.20;;;;;;;0.43;83.69;95660.95;1731257;80;21103;-81
2020/12/11 06:25:31;;;;;;;2.60;2.40;;;;;;;0.42;83.57;95654.70;1770038;80;21141;-82
2020/12/11 06:27:59;;;;;;;2.60;2.40;;;;;;;0.43;83.61;95652.00;1769719;80;21130;-82
2020/12/11 06:30:31;;;;;;;3.10;2.80;;;;;;;0.41;83.50;95650.06;1764729;80;21134;-81
2020/12/11 06:32:59;;;;;;;2.65;2.45;;;;;;;0.38;83.59;95650.34;1767384;80;21244;-82
2020/12/11 06:35:25;;;;;;;2.83;2.58;;;;;;;0.37;83.56;95654.31;1755000;80;21146;-81
2020/12/11 06:37:51;;;;;;;2.83;2.60;;;;;;;0.35;83.51;95653.17;1693734;84;21150;-85
2020/12/11 06:40:48;;;;;;;2.87;2.65;;;;;;;0.36;83.50;95656.53;1756700;80;21150;-85
2020/12/11 06:43:44;;;;;;;2.70;2.35;;;;;;;0.37;83.52;95664.06;1756991;81;21127;-84
2020/12/11 06:46:24;;;;;;;2.67;2.47;;;;;;;0.29;83.25;95654.50;1677078;84;21129;-81
2020/12/11 06:52:05;;;;;;;2.20;2.00;;;;;;;0.40;83.14;95658.67;1812950;76;23002;-81
2020/12/11 06:54:36;;;;;;;2.90;2.27;;;;;;;0.35;82.92;95656.20;1804927;78;21093;-82
2020/12/11 06:57:02;;;;;;;2.60;2.40;;;;;;;0.27;82.94;95661.97;1807284;78;21104;-81
2020/12/11 06:59:39;;;;;;;12.65;8.68;;;;;;;0.21;83.08;95664.61;1810640;78;21073;-82
2020/12/11 07:02:17;;;;;;;34.67;26.30;;;;;;;0.22;83.12;95667.97;1776154;79;21458;-83
2020/12/11 07:04:48;;;;;;;35.48;27.17;;;;;;;0.24;82.96;95666.09;1720811;81;21147;-82
2020/12/11 07:07:14;;;;;;;48.60;34.48;;;;;;;0.24;82.94;95665.61;1746893;81;21113;-82
2020/12/11 07:09:46;;;;;;;47.20;31.68;;;;;;;0.24;83.02;95678.86;1745787;81;21145;-83
2020/12/11 07:12:14;;;;;;;;;;;;;;;0.24;83.17;95673.28;1746897;81;21153;-82
2020/12/11 07:14:43;;;;;;;48.00;31.12;;;;;;;0.26;83.17;95676.50;1747297;81;20165;-82
2020/12/11 07:17:09;;;;;;;29.52;22.30;;;;;;;0.33;83.21;95674.70;1745421;81;21260;-82
2020/12/11 07:19:39;;;;;;;24.55;18.73;;;;;;;0.35;83.07;95684.31;1748683;81;21100;-83
2020/12/11 07:22:05;;;;;;;20.45;14.10;;;;;;;0.36;83.10;95682.89;1760209;81;21272;-83
2020/12/11 07:24:35;;;;;;;22.07;15.35;;;;;;;0.39;83.07;95686.45;1763870;81;21105;-82
2020/12/11 07:27:05;;;;;;;16.37;12.33;;;;;;;0.37;83.11;95688.81;1724019;81;21128;-82
2020/12/11 07:29:32;;;;;;;36.20;25.10;;;;;;;0.40;83.20;95679.12;1760859;81;21352;-82
2020/12/11 07:31:58;;;;;;;18.05;11.85;;;;;;;0.44;83.26;95674.06;1748581;81;21114;-83
2020/12/11 07:34:27;;;;;;;5.90;5.00;;;;;;;0.48;83.37;95672.03;1728292;81;21085;-82
2020/12/11 07:36:58;;;;;;;3.40;3.10;;;;;;;0.50;83.47;95674.00;1753804;81;21129;-81
2020/12/11 07:39:29;;;;;;;2.80;2.47;;;;;;;0.51;83.69;95675.14;1740663;81;21109;-81
2020/12/11 07:41:57;;;;;;;2.40;2.20;;;;;;;0.56;83.83;95672.97;1757330;81;21474;-82
2020/12/11 07:44:30;;;;;;;3.75;3.00;;;;;;;0.66;83.96;95667.85;1755585;81;21125;-82
2020/12/11 07:47:15;;;;;;;3.20;2.90;;;;;;;0.74;83.90;95665.39;1753575;81;21115;-82
2020/12/11 07:49:44;;;;;;;3.33;3.02;;;;;;;0.74;83.93;95662.03;1758133;81;21235;-82
2020/12/11 07:52:11;;;;;;;3.90;3.50;;;;;;;0.82;83.96;95662.97;1746327;81;21314;-83
2020/12/11 07:54:41;;;;;;;3.85;3.30;;;;;;;0.86;83.99;95664.77;1731436;82;21372;-83
2020/12/11 07:57:12;;;;;;;3.87;3.02;;;;;;;0.95;84.02;95665.66;1748200;81;21593;-84
2020/12/11 07:59:40;;;;;;;4.05;3.75;;;;;;;1.07;83.98;95664.08;1751788;81;21114;-84
2020/12/11 08:02:06;;;;;;;4.60;3.70;;;;;;;1.21;83.88;95660.25;1748352;81;21126;-83
2020/12/11 08:04:35;;;;;;;4.67;4.20;;;;;;;1.31;83.75;95667.90;1730459;81;21165;-84
2020/12/11 08:07:04;;;;;;;3.62;3.33;;;;;;;1.36;83.58;95673.39;1728679;81;21320;-83
2020/12/11 08:09:33;;;;;;;4.95;3.92;;;;;;;1.38;83.45;95671.02;1722861;82;21146;-83
2020/12/11 08:12:19;;;;;;;4.55;3.80;;;;;;;1.42;83.48;95674.89;1730194;82;21113;-85
2020/12/11 08:14:47;;;;;;;5.50;3.83;;;;;;;1.48;83.41;95672.26;1734241;81;21937;-83
2020/12/11 08:17:20;;;;;;;4.60;3.62;;;;;;;1.52;83.16;95672.30;1737880;81;21234;-83
2020/12/11 08:19:46;;;;;;;4.45;3.70;;;;;;;1.56;83.10;95671.05;1739653;82;21101;-83
2020/12/11 08:22:16;;;;;;;5.08;4.60;;;;;;;1.61;82.97;95671.42;1672392;80;21249;-84
2020/12/11 08:24:44;;;;;;;5.22;4.12;;;;;;;1.62;82.83;95673.50;1739614;80;21148;-84
2020/12/11 08:27:27;;;;;;;4.33;3.87;;;;;;;1.62;82.72;95671.75;1740568;80;21105;-83
2020/12/11 08:32:57;;;;;;;4.83;4.08;;;;;;;1.64;82.56;95657.07;1797010;77;22439;-81
2020/12/11 08:35:23;;;;;;;5.28;4.17;;;;;;;1.62;82.42;95659.42;1806766;78;21133;-83
2020/12/11 08:37:57;;;;;;;6.33;4.20;;;;;;;1.63;82.30;95661.86;1790333;78;21906;-82
2020/12/11 08:40:23;;;;;;;;;;;;;;;1.62;82.25;95664.55;1773277;80;21086;-82
2020/12/11 08:46:20;;;;;;;5.08;3.83;;;;;;;1.54;82.11;95672.95;1764724;81;21081;-83
2020/12/11 08:51:35;;;;;;;5.45;4.05;;;;;;;1.49;81.80;95675.95;1795318;78;22876;-82
2020/12/11 08:54:05;;;;;;;4.83;3.60;;;;;;;1.43;81.78;95675.70;1771943;79;21403;-83
2020/12/11 08:56:31;;;;;;;4.42;3.85;;;;;;;1.39;81.66;95671.34;1762190;78;21248;-82
2020/12/11 08:58:58;;;;;;;5.00;3.90;;;;;;;1.35;81.72;95660.27;1762278;78;21145;-83
2020/12/11 09:01:24;;;;;;;4.50;3.27;;;;;;;1.35;81.77;95663.63;1762169;78;21137;-81
2020/12/11 09:03:50;;;;;;;4.05;3.65;;;;;;;1.34;81.68;95661.21;1732533;80;21263;-83
2020/12/11 09:06:16;;;;;;;3.80;3.25;;;;;;;1.33;81.36;95660.88;1795697;79;21258;-82
2020/12/11 09:08:43;;;;;;;4.30;3.90;;;;;;;1.30;81.25;95652.19;1770891;78;21244;-82
2020/12/11 09:11:09;;;;;;;4.55;3.52;;;;;;;1.28;81.22;95660.48;1775794;78;21228;-81
2020/12/11 09:13:36;;;;;;;5.35;4.05;;;;;;;1.28;81.27;95657.92;1785168;78;21131;-83
2020/12/11 09:16:02;;;;;;;4.40;3.35;;;;;;;1.25;81.25;95658.21;1716046;81;21433;-83
2020/12/11 09:18:28;;;;;;;4.12;3.47;;;;;;;1.23;81.33;95649.40;1718983;81;21246;-82
2020/12/11 09:20:54;;;;;;;3.67;3.37;;;;;;;1.30;81.29;95653.46;1714040;81;21121;-81
2020/12/11 09:23:21;;;;;;;5.37;3.33;;;;;;;1.34;81.09;95653.06;1739700;81;21118;-82
2020/12/11 09:25:47;;;;;;;4.90;4.08;;;;;;;1.32;81.09;95649.03;1767611;80;21338;-82
2020/12/11 09:28:16;;;;;;;4.35;3.85;;;;;;;1.31;81.20;95646.14;1758809;81;21080;-82
2020/12/11 09:30:42;;;;;;;4.47;3.15;;;;;;;1.32;81.33;95646.00;1723988;81;21118;-82
2020/12/11 09:33:16;;;;;;;3.72;3.33;;;;;;;1.33;81.40;95639.13;1702298;81;21147;-82
2020/12/11 09:35:39;;;;;;;3.95;3.58;;;;;;;1.39;81.36;95632.14;1711459;81;21334;-82
2020/12/11 09:38:05;;;;;;;4.60;3.98;;;;;;;1.44;81.19;95625.64;1700031;82;21253;-82
2020/12/11 09:56:08;;;;;;;3.75;3.45;;;;;;;1.71;80.75;95609.44;1757114;81;21141;-83
2020/12/11 09:58:37;;;;;;;4.60;3.52;;;;;;;1.73;80.70;95606.25;1746477;81;21142;-82
2020/12/11 10:01:05;;;;;;;5.00;3.85;;;;;;;1.75;80.67;95602.26;1767209;81;21114;-81
2020/12/11 10:03:36;;;;;;;5.03;4.53;;;;;;;1.77;80.69;95593.47;1748217;81;21129;-82
2020/12/11 10:06:01;;;;;;;4.65;3.20;;;;;;;1.78;80.62;95600.67;1767861;81;21131;-82
2020/12/11 10:08:27;;;;;;;3.77;3.22;;;;;;;1.82;80.34;95605.86;1765493;81;21108;-82
2020/12/11 10:10:54;;;;;;;3.92;3.33;;;;;;;1.85;80.23;95598.35;1767435;81;22001;-83
2020/12/11 10:13:22;;;;;;;3.58;3.05;;;;;;;1.86;80.11;95599.95;1767427;81;21228;-82
2020/12/11 10:15:48;;;;;;;3.83;3.12;;;;;;;1.86;80.13;95602.05;1767609;81;21121;-82
2020/12/11 10:18:14;;;;;;;4.25;3.85;;;;;;;1.88;80.15;95600.14;1767089;81;21087;-83
2020/12/11 10:20:41;;;;;;;6.08;3.52;;;;;;;1.88;80.14;95591.65;1767669;81;21383;-82
2020/12/11 10:23:07;;;;;;;3.90;3.50;;;;;;;1.91;80.22;95593.43;1767357;81;21115;-84
2020/12/11 10:25:38;;;;;;;4.72;3.62;;;;;;;1.97;80.24;95585.66;1767083;81;21122;-83
2020/12/11 10:28:04;;;;;;;6.25;4.72;;;;;;;2.06;80.47;95586.83;1768179;81;21111;-83
2020/12/11 10:30:31;;;;;;;6.58;5.45;;;;;;;2.18;80.46;95591.25;1764343;81;21121;-83
2020/12/11 10:32:57;;;;;;;19.67;13.93;;;;;;;2.23;80.20;95590.80;1769495;81;21121;-83
2020/12/11 10:35:24;;;;;;;8.08;6.67;;;;;;;2.26;80.09;95592.58;1750434;81;21130;-83
2020/12/11 10:37:50;;;;;;;10.82;7.92;;;;;;;2.28;80.12;95589.41;1763326;81;21235;-82
2020/12/11 10:40:16;;;;;;;14.53;10.85;;;;;;;2.30;80.26;95584.94;1759076;81;21109;-84
2020/12/11 10:42:42;;;;;;;13.30;9.88;;;;;;;2.37;80.22;95583.38;1723665;82;21780;-84
2020/12/11 10:45:08;;;;;;;27.60;17.52;;;;;;;2.40;80.27;95559.19;1728781;82;21118;-84
2020/12/11 10:47:34;;;;;;;16.42;11.78;;;;;;;2.61;80.28;95572.47;1729833;83;21438;-84
2020/12/11 10:50:02;;;;;;;12.75;10.55;;;;;;;2.70;80.25;95571.54;1718218;82;21123;-84
2020/12/11 10:52:28;;;;;;;28.75;20.90;;;;;;;2.77;80.10;95572.23;1722582;82;21240;-84
2020/12/11 10:54:55;;;;;;;20.80;14.33;;;;;;;2.81;80.12;95569.20;1727634;81;21153;-84
2020/12/11 10:57:21;;;;;;;27.22;18.55;;;;;;;2.83;79.88;95563.91;1729814;82;21295;-84
2020/12/11 10:59:47;;;;;;;29.67;21.25;;;;;;;2.86;79.83;95558.47;1723579;82;21107;-86
2020/12/11 11:02:14;;;;;;;34.78;23.42;;;;;;;2.85;79.69;95551.25;1727273;82;21244;-84
2020/12/11 11:04:41;;;;;;;43.52;30.17;;;;;;;2.88;79.53;95542.43;1727915;81;21252;-83
2020/12/11 11:07:17;;;;;;;41.68;29.02;;;;;;;2.92;79.43;95539.88;1722012;82;21141;-85
2020/12/11 11:09:47;;;;;;;33.50;24.60;;;;;;;2.98;79.38;95531.58;1721258;81;21142;-83
2020/12/11 11:20:21;;;;;;;20.80;13.95;;;;;;;2.99;79.15;95533.98;1801004;78;21224;-83
2020/12/11 11:27:45;;;;;;;22.32;15.13;;;;;;;2.93;78.44;95523.06;1794466;78;21219;-83
2020/12/11 11:30:10;;;;;;;21.82;15.43;;;;;;;2.90;78.46;95523.35;1816221;78;21146;-84
2020/12/11 11:32:37;;;;;;;19.40;15.78;;;;;;;2.85;78.46;95519.17;1768543;80;21227;-84
2020/12/11 11:35:05;;;;;;;26.90;18.62;;;;;;;2.82;78.44;95527.66;1770117;80;21097;-84
2020/12/11 11:37:31;;;;;;;26.10;18.57;;;;;;;2.77;78.37;95526.05;1779925;80;21240;-84
2020/12/11 11:39:57;;;;;;;17.40;12.80;;;;;;;2.78;78.41;95521.24;1762897;81;21090;-83
2020/12/11 11:42:23;;;;;;;14.63;11.12;;;;;;;2.77;78.16;95515.31;1751421;81;21490;-84
2020/12/11 11:47:21;;;;;;;18.32;13.18;;;;;;;2.81;78.32;95520.45;1752837;81;21477;-84
2020/12/11 11:53:49;;;;;;;28.50;18.77;;;;;;;2.76;77.95;95514.95;1748981;81;21081;-84
2020/12/11 11:56:20;;;;;;;31.62;21.17;;;;;;;2.67;78.14;95508.20;1749037;81;21256;-84
2020/12/11 11:58:46;;;;;;;31.45;21.37;;;;;;;2.67;78.18;95511.57;1740848;81;21509;-83
2020/12/11 12:01:13;;;;;;;44.75;30.27;;;;;;;2.68;77.97;95517.50;1743865;81;21122;-83
2020/12/11 12:03:39;;;;;;;47.45;32.78;;;;;;;2.67;78.15;95513.33;1748742;81;22262;-84
2020/12/11 12:06:06;;;;;;;58.02;39.98;;;;;;;2.69;78.33;95514.78;1741231;81;21129;-85
2020/12/11 12:08:36;;;;;;;59.20;41.65;;;;;;;2.73;78.41;95511.91;1751670;81;21288;-86
2020/12/11 12:11:18;;;;;;;63.50;42.55;;;;;;;2.71;78.06;95497.95;1807330;77;23060;-88
2020/12/11 12:13:44;;;;;;;68.85;43.60;;;;;;;2.60;78.06;95495.20;1801003;78;21343;-88
2020/12/11 12:16:15;;;;;;;68.67;43.02;;;;;;;2.56;77.94;95496.92;1822217;78;21102;-86
2020/12/11 12:18:42;;;;;;;68.07;45.85;;;;;;;2.53;78.04;95492.11;1806124;78;21117;-88
2020/12/11 12:21:14;;;;;;;66.37;44.05;;;;;;;2.51;78.11;95490.98;1796787;78;21101;-87
2020/12/11 12:29:11;;;;;;;87.60;54.08;;;;;;;2.52;78.33;95483.62;1803416;78;21161;-86
2020/12/11 12:31:44;;;;;;;77.78;49.00;;;;;;;2.48;78.34;95479.76;1816624;78;21094;-85
2020/12/11 12:34:34;;;;;;;69.10;43.70;;;;;;;2.47;78.29;95477.35;1801005;78;21332;-85